Airfield :
LOGIN :

Register | Disclaimer

   EN    FR    IT 

 










Legend :    VFR   Marginal VFR   IFR   Intensive IFR   Very Intensive IFR
Visi :
Ceiling :
>= 8 km
>= 3000ft
5 to 8 km
1000 to 3000 ft
1500m to 5 km
500 to 1000 ft
800 to 1500m
200 to 500 ft
< 800m
< 200 ft
Symbols :   Thunderstorms  Fog  Heavy snow  Heavy precipitations  Wind > 20 kt
SIGMETs :     Misc.  Thunderstorms  Icing  Turbulence  Mountain Waves  Volcanic Ashes







- Airport Elevation : 844 ft
- IATA code : OSR


LKMT - Ostrava-Mosnov

CURRENT METAR :
  • 180730Z 05006KT 030V100 CAVOK 23/14 Q1020 NOSIG

EXPIRED METARs :
  • 180700Z 06005KT 040V120 CAVOK 23/14 Q1020 NOSIG
  • 180630Z 09004KT 040V130 CAVOK 22/13 Q1019 NOSIG
  • 180600Z 11003KT 070V160 CAVOK 20/14 Q1019 NOSIG
  • 180530Z 35007KT 310V020 CAVOK 17/14 Q1019 NOSIG
  • 180521Z 35010KT CAVOK 17/14 Q1019 RMK REG QNH 1014
  • 180500Z 24003KT CAVOK 16/13 Q1018 NOSIG

TAF TAF LKMT
Valid from the 18 at 06:00 until the 19 at 12:00 UTC


180500Z 1806/1912 21005KT CAVOK
BECMG 1807/1809 03008KT
PROB30
TEMPO 1810/1818 03014G25KT 7000 SHRA SCT050CB
BECMG 1821/1823 VRB02KT
BECMG 1907/1909 05008KT
PROB30
TEMPO 1910/1912 03014G25KT 7000 SHRA SCT050CB
No reported NOTAMs for that airfield.



MET'MAP, your aeronautical weather chart ! - Copyright ORBIFLY December 2007 - Disclaimer

ORBIFLY MET'MAP TEAM :

Programming & Development : Alexandra Zaïnal
Concept & Development : Baudouin d'Aumeries
Co-Development & Prog : Marc-Olivier Méhu
Technical & hardware support : Manuel Goepfert

Contact : metmap@orbifly.com




SOURCES & CREDITS :

   NOAA